Time;durP1;ratioP1;P1;durP2;ratioP2;P2;SDS_P1;SDS_P2;PMS_P1;PMS_P2;Temp;Humidity;BMP_temperature;BMP_pressure;BME280_temperature;BME280_humidity;BME280_pressure;Samples;Min_cycle;Max_cycle;Signal;HPM_P1;HPM_P2
2022/11/22 00:01:12;;;;;;;231.83;74.87;;;;;;;;;;5014270;28;20530;-53
2022/11/22 00:03:41;;;;;;;221.90;73.87;;;;;;;;;;5015481;28;20757;-53
2022/11/22 00:06:07;;;;;;;352.10;102.70;;;;;;;;;;5016388;28;20180;-53
2022/11/22 00:08:33;;;;;;;218.57;73.70;;;;;;;;;;5018667;28;20568;-52
2022/11/22 00:10:59;;;;;;;543.10;164.60;;;;;;;;;;5011118;28;20553;-51
2022/11/22 00:13:24;;;;;;;369.90;113.93;;;;;;;;;;5007987;28;20224;-52
2022/11/22 00:15:58;;;;;;;471.67;145.13;;;;;;;;;;5009372;28;20226;-55
2022/11/22 00:18:24;;;;;;;303.30;93.43;;;;;;;;;;5011353;28;20181;-53
2022/11/22 00:20:50;;;;;;;472.53;138.47;;;;;;;;;;5004440;28;20191;-51
2022/11/22 00:23:16;;;;;;;382.57;117.57;;;;;;;;;;4988883;28;20310;-52
2022/11/22 00:25:42;;;;;;;466.33;135.67;;;;;;;;;;5002967;28;20581;-51
2022/11/22 00:28:08;;;;;;;344.80;103.27;;;;;;;;;;5003790;28;20249;-54
2022/11/22 00:30:37;;;;;;;450.53;128.93;;;;;;;;;;5000446;28;20279;-52
2022/11/22 00:33:02;;;;;;;455.07;131.53;;;;;;;;;;4992266;28;20692;-52
2022/11/22 00:35:28;;;;;;;268.93;87.80;;;;;;;;;;4998771;28;20342;-52
2022/11/22 00:37:57;;;;;;;411.17;119.37;;;;;;;;;;4997071;28;20223;-52
2022/11/22 00:40:23;;;;;;;288.37;84.33;;;;;;;;;;5013607;28;20329;-53
2022/11/22 00:42:49;;;;;;;350.07;101.33;;;;;;;;;;5025934;28;20246;-52
2022/11/22 00:45:15;;;;;;;328.97;99.33;;;;;;;;;;5028457;28;20179;-52
2022/11/22 00:47:41;;;;;;;421.23;125.87;;;;;;;;;;5026794;28;21367;-52
2022/11/22 00:50:10;;;;;;;407.00;124.73;;;;;;;;;;5011576;28;20237;-52
2022/11/22 00:52:36;;;;;;;364.27;111.97;;;;;;;;;;5010647;28;20280;-51
2022/11/22 00:55:02;;;;;;;467.17;137.83;;;;;;;;;;5012897;28;20716;-52
2022/11/22 00:57:28;;;;;;;465.27;142.37;;;;;;;;;;4988661;28;20553;-52
2022/11/22 00:59:54;;;;;;;161.53;55.63;;;;;;;;;;5005687;28;20195;-53
2022/11/22 01:02:20;;;;;;;233.07;72.77;;;;;;;;;;5021452;28;20220;-52
2022/11/22 01:04:46;;;;;;;262.73;81.10;;;;;;;;;;5015629;28;20243;-52
2022/11/22 01:07:12;;;;;;;318.80;93.23;;;;;;;;;;5017027;28;20204;-52
2022/11/22 01:09:38;;;;;;;405.50;112.37;;;;;;;;;;5021354;28;20369;-52
2022/11/22 01:12:05;;;;;;;359.60;102.80;;;;;;;;;;5015351;28;20208;-51
2022/11/22 01:14:31;;;;;;;236.63;73.53;;;;;;;;;;5019908;28;20223;-53
2022/11/22 01:16:57;;;;;;;272.23;84.00;;;;;;;;;;5019728;28;20207;-53
2022/11/22 01:19:23;;;;;;;274.80;81.63;;;;;;;;;;5021102;28;20215;-54
2022/11/22 01:21:49;;;;;;;382.93;105.50;;;;;;;;;;5018626;28;20228;-54
2022/11/22 01:24:15;;;;;;;158.67;54.70;;;;;;;;;;5024406;28;20191;-53
2022/11/22 01:26:41;;;;;;;368.23;106.83;;;;;;;;;;5018363;28;20625;-53
2022/11/22 01:29:07;;;;;;;245.57;70.00;;;;;;;;;;5019592;28;20242;-53
2022/11/22 01:31:34;;;;;;;228.70;68.93;;;;;;;;;;5025232;28;20227;-53
2022/11/22 01:34:00;;;;;;;303.67;92.67;;;;;;;;;;5023440;28;20223;-53
2022/11/22 01:36:26;;;;;;;314.47;88.53;;;;;;;;;;5023074;28;20734;-53
2022/11/22 01:38:55;;;;;;;326.17;97.93;;;;;;;;;;5037535;28;20238;-53
2022/11/22 01:41:21;;;;;;;276.97;79.27;;;;;;;;;;5028147;28;20224;-53
2022/11/22 01:43:47;;;;;;;282.67;83.80;;;;;;;;;;5031520;28;20269;-53
2022/11/22 01:46:29;;;;;;;220.57;66.87;;;;;;;;;;5033307;28;20212;-53
2022/11/22 01:48:59;;;;;;;284.43;83.57;;;;;;;;;;5027502;28;20280;-53
2022/11/22 01:51:28;;;;;;;388.17;108.07;;;;;;;;;;5024811;28;20192;-53
2022/11/22 01:53:56;;;;;;;229.37;71.93;;;;;;;;;;5023789;28;20212;-53
2022/11/22 01:56:23;;;;;;;173.83;58.80;;;;;;;;;;5023082;28;20223;-53
2022/11/22 01:58:52;;;;;;;227.43;72.03;;;;;;;;;;5022970;28;20719;-53
2022/11/22 02:01:19;;;;;;;232.07;69.87;;;;;;;;;;5018912;28;20342;-53
2022/11/22 02:03:46;;;;;;;342.33;102.13;;;;;;;;;;5025803;28;20561;-53
2022/11/22 02:06:12;;;;;;;233.03;73.13;;;;;;;;;;5023992;28;20274;-53
2022/11/22 02:08:58;;;;;;;309.77;94.57;;;;;;;;;;5021460;28;20265;-53
2022/11/22 02:11:24;;;;;;;241.87;74.93;;;;;;;;;;5021502;28;20294;-53
2022/11/22 02:13:51;;;;;;;274.40;80.00;;;;;;;;;;5028792;28;20238;-53
2022/11/22 02:16:17;;;;;;;322.83;86.97;;;;;;;;;;5033957;28;20220;-52
2022/11/22 02:18:43;;;;;;;264.80;80.40;;;;;;;;;;5042259;28;20655;-53
2022/11/22 02:21:09;;;;;;;290.33;86.23;;;;;;;;;;5045446;28;20198;-53
2022/11/22 02:23:53;;;;;;;161.50;52.73;;;;;;;;;;5048448;28;20222;-53
2022/11/22 02:26:23;;;;;;;323.03;93.83;;;;;;;;;;5037649;28;20298;-52
2022/11/22 02:28:50;;;;;;;312.10;92.37;;;;;;;;;;5031046;28;20248;-53
2022/11/22 02:31:34;;;;;;;268.80;79.27;;;;;;;;;;5020747;28;20260;-53
2022/11/22 02:34:00;;;;;;;246.20;72.63;;;;;;;;;;5025145;28;20836;-53
2022/11/22 02:36:26;;;;;;;251.73;75.93;;;;;;;;;;5023633;28;20192;-53
2022/11/22 02:38:53;;;;;;;180.63;59.23;;;;;;;;;;5025673;28;20191;-53
2022/11/22 02:41:19;;;;;;;358.00;104.17;;;;;;;;;;5026911;28;20220;-52
2022/11/22 02:43:46;;;;;;;164.80;57.60;;;;;;;;;;5022000;28;20299;-53
2022/11/22 02:46:23;;;;;;;343.60;98.87;;;;;;;;;;5027136;28;20223;-53
2022/11/22 02:48:49;;;;;;;184.43;61.10;;;;;;;;;;5022603;28;20215;-54
2022/11/22 02:51:16;;;;;;;249.63;72.87;;;;;;;;;;5027233;28;20185;-53
2022/11/22 02:53:42;;;;;;;384.50;107.47;;;;;;;;;;5027031;28;20220;-52
2022/11/22 02:56:09;;;;;;;320.07;92.07;;;;;;;;;;5022176;28;20215;-53
2022/11/22 02:58:35;;;;;;;248.50;74.97;;;;;;;;;;5027087;28;20811;-52
2022/11/22 03:01:01;;;;;;;173.17;57.37;;;;;;;;;;5026684;28;20247;-53
2022/11/22 03:03:28;;;;;;;394.83;107.97;;;;;;;;;;5025486;28;20566;-53
2022/11/22 03:05:54;;;;;;;252.13;78.37;;;;;;;;;;5023128;28;20218;-53
2022/11/22 03:08:20;;;;;;;382.00;101.70;;;;;;;;;;5027847;28;20338;-53
2022/11/22 03:10:46;;;;;;;169.50;58.33;;;;;;;;;;5022579;28;20681;-53
2022/11/22 03:13:12;;;;;;;194.17;64.17;;;;;;;;;;5027885;28;20760;-52
2022/11/22 03:15:41;;;;;;;270.20;79.53;;;;;;;;;;5025404;28;20219;-53
2022/11/22 03:18:07;;;;;;;378.77;107.33;;;;;;;;;;5023943;28;20277;-53
2022/11/22 03:20:33;;;;;;;386.77;110.70;;;;;;;;;;5026126;28;20355;-52
2022/11/22 03:23:00;;;;;;;185.73;65.23;;;;;;;;;;5021433;28;20227;-51
2022/11/22 03:25:26;;;;;;;291.60;85.77;;;;;;;;;;5023101;28;20231;-52
2022/11/22 03:27:52;;;;;;;170.10;60.53;;;;;;;;;;5027498;28;20219;-52
2022/11/22 03:30:18;;;;;;;323.20;98.87;;;;;;;;;;5024905;28;20250;-53
2022/11/22 03:32:44;;;;;;;270.93;89.07;;;;;;;;;;5022500;28;20458;-52
2022/11/22 03:35:15;;;;;;;223.23;72.97;;;;;;;;;;5027601;28;20212;-52
2022/11/22 03:37:41;;;;;;;330.87;102.23;;;;;;;;;;5035484;28;20215;-52
2022/11/22 03:40:08;;;;;;;200.03;70.60;;;;;;;;;;5021434;28;20210;-51
2022/11/22 03:42:42;;;;;;;393.43;113.77;;;;;;;;;;5022418;28;20207;-51
2022/11/22 03:45:08;;;;;;;276.10;88.97;;;;;;;;;;5040397;28;20175;-52
2022/11/22 03:47:35;;;;;;;263.80;82.60;;;;;;;;;;5022029;28;20227;-52
2022/11/22 03:50:01;;;;;;;378.37;119.23;;;;;;;;;;4997161;28;20251;-52
2022/11/22 03:52:30;;;;;;;448.47;136.33;;;;;;;;;;4994566;28;21413;-53
2022/11/22 03:54:56;;;;;;;365.00;118.30;;;;;;;;;;4995898;28;20553;-53
2022/11/22 03:57:22;;;;;;;384.23;118.37;;;;;;;;;;5002012;28;20192;-53
2022/11/22 03:59:48;;;;;;;375.10;116.47;;;;;;;;;;5009246;28;20176;-53
2022/11/22 04:02:15;;;;;;;319.13;110.10;;;;;;;;;;5007555;28;20307;-53
2022/11/22 04:04:41;;;;;;;363.07;109.47;;;;;;;;;;5011480;28;20422;-52
2022/11/22 04:07:07;;;;;;;313.00;107.43;;;;;;;;;;5000435;28;20289;-52
2022/11/22 04:09:33;;;;;;;414.37;136.77;;;;;;;;;;4998814;28;20254;-55
2022/11/22 04:11:59;;;;;;;233.33;83.07;;;;;;;;;;5004105;28;20599;-52
2022/11/22 04:17:39;;;;;;;332.90;107.83;;;;;;;;;;5004364;28;20215;-52
2022/11/22 04:22:56;;;;;;;386.63;125.37;;;;;;;;;;5009416;28;20230;-53
2022/11/22 04:25:23;;;;;;;367.60;120.27;;;;;;;;;;4995304;28;20215;-52
2022/11/22 04:27:48;;;;;;;301.30;105.67;;;;;;;;;;5010529;28;20219;-52
2022/11/22 04:30:15;;;;;;;353.80;115.03;;;;;;;;;;5035508;28;20571;-53
2022/11/22 04:32:47;;;;;;;316.33;106.90;;;;;;;;;;5020983;28;20802;-53
2022/11/22 04:35:14;;;;;;;399.37;129.50;;;;;;;;;;5022330;28;20218;-53
2022/11/22 04:37:41;;;;;;;236.03;82.83;;;;;;;;;;5020102;28;20220;-53
2022/11/22 04:40:07;;;;;;;360.13;114.30;;;;;;;;;;5017309;28;20211;-52
2022/11/22 04:45:18;;;;;;;387.90;124.05;;;;;;;;;;5020447;28;20660;-52
2022/11/22 04:48:05;;;;;;;179.20;68.43;;;;;;;;;;5044685;28;20191;-52
2022/11/22 04:53:16;;;;;;;373.93;114.93;;;;;;;;;;5034953;28;20600;-55
2022/11/22 04:55:44;;;;;;;380.17;118.00;;;;;;;;;;5035690;28;20421;-54
2022/11/22 04:58:10;;;;;;;231.27;84.70;;;;;;;;;;5033990;28;20211;-54
2022/11/22 05:00:36;;;;;;;412.27;137.03;;;;;;;;;;5029725;28;20215;-53
2022/11/22 05:03:03;;;;;;;394.47;134.60;;;;;;;;;;5022144;28;20274;-56
2022/11/22 05:05:29;;;;;;;368.43;125.23;;;;;;;;;;5023234;28;20222;-53
2022/11/22 05:07:55;;;;;;;195.33;74.53;;;;;;;;;;5026025;28;20215;-53
2022/11/22 05:10:22;;;;;;;376.93;122.40;;;;;;;;;;5014352;28;20656;-54
2022/11/22 05:12:48;;;;;;;437.03;141.80;;;;;;;;;;4999681;28;20485;-54
2022/11/22 05:15:14;;;;;;;336.50;116.87;;;;;;;;;;5024216;28;20187;-54
2022/11/22 05:17:40;;;;;;;394.50;128.90;;;;;;;;;;5027881;28;22190;-54
2022/11/22 05:20:07;;;;;;;294.40;105.87;;;;;;;;;;5023126;28;20429;-53
2022/11/22 05:25:17;;;;;;;352.43;115.30;;;;;;;;;;5021268;28;20249;-53
2022/11/22 05:27:43;;;;;;;305.17;102.23;;;;;;;;;;5028130;28;20670;-54
2022/11/22 05:30:10;;;;;;;442.43;153.50;;;;;;;;;;5022719;28;20195;-54
2022/11/22 05:32:39;;;;;;;316.07;103.03;;;;;;;;;;5027178;28;20598;-53
2022/11/22 05:35:05;;;;;;;429.83;142.43;;;;;;;;;;5022450;28;20254;-53
2022/11/22 05:37:31;;;;;;;330.67;110.03;;;;;;;;;;5021855;28;20922;-53
2022/11/22 05:39:56;;;;;;;441.30;142.93;;;;;;;;;;5020473;28;20432;-53
2022/11/22 05:42:23;;;;;;;467.63;156.90;;;;;;;;;;5018946;28;20263;-55
2022/11/22 05:44:49;;;;;;;447.77;148.10;;;;;;;;;;5016560;28;20211;-53
2022/11/22 05:47:15;;;;;;;338.53;114.83;;;;;;;;;;5032772;28;20734;-54
2022/11/22 05:49:41;;;;;;;304.83;111.13;;;;;;;;;;5033566;28;20292;-53
2022/11/22 05:52:07;;;;;;;364.80;125.10;;;;;;;;;;5041521;28;20224;-55
2022/11/22 05:54:33;;;;;;;197.63;76.87;;;;;;;;;;5032910;28;20199;-53
2022/11/22 05:56:59;;;;;;;401.50;132.80;;;;;;;;;;5025961;28;21801;-54
2022/11/22 05:59:25;;;;;;;316.30;113.20;;;;;;;;;;5023366;28;20579;-52
2022/11/22 06:01:51;;;;;;;301.63;102.37;;;;;;;;;;5024729;28;20230;-53
2022/11/22 06:04:17;;;;;;;396.93;135.47;;;;;;;;;;5025273;28;20215;-53
2022/11/22 06:06:45;;;;;;;337.83;117.80;;;;;;;;;;5020622;28;20942;-53
2022/11/22 06:09:12;;;;;;;484.50;162.63;;;;;;;;;;5002112;28;20214;-53
2022/11/22 06:11:38;;;;;;;307.10;101.77;;;;;;;;;;5009235;28;20257;-52
2022/11/22 06:14:04;;;;;;;391.97;127.77;;;;;;;;;;5017953;28;20223;-52
2022/11/22 06:16:30;;;;;;;185.90;76.13;;;;;;;;;;5027153;28;20241;-52
2022/11/22 06:18:56;;;;;;;302.30;105.57;;;;;;;;;;5020570;28;21001;-52
2022/11/22 06:21:23;;;;;;;341.07;121.10;;;;;;;;;;5029498;28;20275;-52
2022/11/22 06:23:50;;;;;;;223.87;86.90;;;;;;;;;;5023425;28;20231;-52
2022/11/22 06:26:17;;;;;;;419.40;144.67;;;;;;;;;;5018509;28;20208;-52
2022/11/22 06:28:44;;;;;;;241.67;91.73;;;;;;;;;;5020796;28;20215;-53
2022/11/22 06:31:11;;;;;;;333.43;114.67;;;;;;;;;;5024151;28;20428;-52
2022/11/22 06:33:38;;;;;;;254.37;96.07;;;;;;;;;;5016116;28;20538;-51
2022/11/22 06:36:05;;;;;;;421.00;150.53;;;;;;;;;;5009282;28;20575;-51
2022/11/22 06:38:32;;;;;;;415.73;141.97;;;;;;;;;;5002448;28;20212;-51
2022/11/22 06:41:02;;;;;;;321.43;113.33;;;;;;;;;;5006825;28;20647;-53
2022/11/22 06:43:29;;;;;;;311.67;114.87;;;;;;;;;;5010941;28;20216;-52
2022/11/22 06:45:56;;;;;;;276.40;101.50;;;;;;;;;;5013672;28;20588;-52
2022/11/22 06:48:23;;;;;;;514.83;197.20;;;;;;;;;;4972835;28;20250;-53
2022/11/22 06:50:49;;;;;;;263.70;97.27;;;;;;;;;;4993075;28;20637;-52
2022/11/22 06:53:14;;;;;;;323.97;112.40;;;;;;;;;;5007913;28;20224;-53
2022/11/22 06:55:40;;;;;;;488.90;173.73;;;;;;;;;;4999914;28;20219;-53
2022/11/22 06:58:06;;;;;;;243.87;98.23;;;;;;;;;;5004564;28;20208;-52
2022/11/22 07:00:32;;;;;;;374.40;138.87;;;;;;;;;;5006728;28;20245;-52
2022/11/22 07:02:58;;;;;;;303.67;118.37;;;;;;;;;;5007797;28;20322;-53
2022/11/22 07:05:24;;;;;;;409.43;143.77;;;;;;;;;;5011521;28;20285;-54
2022/11/22 07:07:50;;;;;;;327.60;117.23;;;;;;;;;;5015284;28;20712;-52
2022/11/22 07:10:16;;;;;;;535.90;201.90;;;;;;;;;;5007661;28;20270;-53
2022/11/22 07:12:44;;;;;;;444.33;178.13;;;;;;;;;;4980151;28;20246;-52
2022/11/22 07:15:10;;;;;;;296.67;109.63;;;;;;;;;;4987690;28;20184;-54
2022/11/22 07:17:37;;;;;;;353.43;127.93;;;;;;;;;;5004507;28;20270;-54
2022/11/22 07:20:03;;;;;;;379.33;145.87;;;;;;;;;;4988991;28;20760;-52
2022/11/22 07:22:29;;;;;;;545.13;197.47;;;;;;;;;;4989346;28;20262;-52
2022/11/22 07:24:55;;;;;;;341.47;131.93;;;;;;;;;;4991469;28;21899;-52
2022/11/22 07:27:21;;;;;;;448.20;168.03;;;;;;;;;;4985860;28;20188;-52
2022/11/22 07:29:47;;;;;;;347.13;133.80;;;;;;;;;;4997269;28;20217;-51
2022/11/22 07:32:13;;;;;;;439.50;145.23;;;;;;;;;;5009199;28;20295;-52
2022/11/22 07:34:39;;;;;;;420.63;160.20;;;;;;;;;;5025645;28;20228;-53
2022/11/22 07:37:06;;;;;;;509.40;197.37;;;;;;;;;;5012621;28;20212;-52
2022/11/22 07:39:32;;;;;;;360.70;129.20;;;;;;;;;;4994042;28;20447;-52
2022/11/22 07:41:58;;;;;;;427.23;158.03;;;;;;;;;;5000232;28;20254;-53
2022/11/22 07:44:24;;;;;;;419.13;157.80;;;;;;;;;;5005444;28;20204;-52
2022/11/22 07:46:51;;;;;;;355.63;131.77;;;;;;;;;;4985086;28;20521;-54
2022/11/22 07:49:17;;;;;;;447.63;174.67;;;;;;;;;;5001793;28;20227;-52
2022/11/22 07:51:43;;;;;;;435.53;165.17;;;;;;;;;;5011459;28;20247;-52
2022/11/22 07:54:11;;;;;;;315.03;113.57;;;;;;;;;;5013542;28;20211;-51
2022/11/22 07:56:37;;;;;;;361.97;129.50;;;;;;;;;;5016124;28;20580;-52
2022/11/22 07:59:06;;;;;;;389.20;148.83;;;;;;;;;;5012729;28;20319;-52
2022/11/22 08:01:32;;;;;;;473.70;192.60;;;;;;;;;;5006169;28;20569;-52
2022/11/22 08:03:57;;;;;;;347.77;130.27;;;;;;;;;;5007334;28;20218;-52
2022/11/22 08:06:23;;;;;;;516.63;194.87;;;;;;;;;;5014631;28;20180;-52
2022/11/22 08:08:49;;;;;;;320.40;124.30;;;;;;;;;;5018619;28;20176;-53
2022/11/22 08:11:15;;;;;;;355.10;134.03;;;;;;;;;;5019699;28;20763;-51
2022/11/22 08:13:42;;;;;;;351.73;143.30;;;;;;;;;;5018429;28;20322;-52
2022/11/22 08:16:10;;;;;;;357.40;138.43;;;;;;;;;;5019910;28;20683;-54
2022/11/22 08:18:36;;;;;;;440.80;161.93;;;;;;;;;;5017621;28;20212;-52
2022/11/22 08:21:03;;;;;;;302.97;118.77;;;;;;;;;;5020235;28;20203;-52
2022/11/22 08:23:29;;;;;;;370.60;129.57;;;;;;;;;;5021399;28;20307;-52
2022/11/22 08:25:57;;;;;;;261.80;101.07;;;;;;;;;;5009429;28;20252;-51
2022/11/22 08:28:22;;;;;;;453.30;161.47;;;;;;;;;;5022102;28;20235;-54
2022/11/22 08:30:49;;;;;;;396.60;143.93;;;;;;;;;;5016941;28;20333;-53
2022/11/22 08:33:15;;;;;;;436.47;157.00;;;;;;;;;;5019184;28;21077;-52
2022/11/22 08:35:42;;;;;;;250.33;98.80;;;;;;;;;;5021381;28;20183;-52
2022/11/22 08:38:08;;;;;;;413.67;140.53;;;;;;;;;;5020682;28;20236;-52
2022/11/22 08:40:34;;;;;;;490.00;167.50;;;;;;;;;;5023896;28;20691;-52
2022/11/22 08:43:00;;;;;;;400.93;142.93;;;;;;;;;;5017844;28;20432;-52
2022/11/22 08:45:26;;;;;;;401.93;147.77;;;;;;;;;;5024138;28;20246;-52
2022/11/22 08:47:52;;;;;;;435.53;155.30;;;;;;;;;;5018026;28;20609;-52
2022/11/22 08:50:18;;;;;;;363.63;124.33;;;;;;;;;;5021981;28;20286;-52
2022/11/22 08:52:44;;;;;;;309.13;115.33;;;;;;;;;;5022693;28;20219;-52
2022/11/22 08:55:10;;;;;;;366.73;130.90;;;;;;;;;;5022112;28;20218;-52
2022/11/22 08:57:36;;;;;;;363.00;133.70;;;;;;;;;;5022122;28;20219;-53
2022/11/22 09:00:03;;;;;;;323.57;114.60;;;;;;;;;;5023539;28;20245;-52
2022/11/22 09:02:29;;;;;;;407.17;145.03;;;;;;;;;;5023683;28;20231;-52
2022/11/22 09:04:55;;;;;;;367.93;143.23;;;;;;;;;;5034116;28;20505;-52
2022/11/22 09:07:21;;;;;;;378.40;138.03;;;;;;;;;;5031100;28;20210;-53
2022/11/22 09:09:48;;;;;;;282.20;110.23;;;;;;;;;;5032682;28;20318;-52
2022/11/22 09:12:13;;;;;;;353.37;134.47;;;;;;;;;;5034442;28;20202;-52
2022/11/22 09:14:40;;;;;;;447.03;165.13;;;;;;;;;;5033146;28;20752;-52
2022/11/22 09:17:06;;;;;;;405.73;150.43;;;;;;;;;;5023994;28;20208;-52
2022/11/22 09:19:32;;;;;;;335.60;134.27;;;;;;;;;;5025807;28;20679;-52
2022/11/22 09:21:58;;;;;;;350.43;135.53;;;;;;;;;;5021208;28;20212;-52
2022/11/22 09:24:24;;;;;;;331.17;122.90;;;;;;;;;;5025735;28;20239;-53
2022/11/22 09:26:50;;;;;;;451.13;168.10;;;;;;;;;;5022335;28;20204;-52
2022/11/22 09:29:16;;;;;;;394.33;149.60;;;;;;;;;;5008250;28;20751;-52
2022/11/22 09:31:42;;;;;;;311.07;125.27;;;;;;;;;;5018719;28;20507;-52
2022/11/22 09:34:08;;;;;;;463.03;161.87;;;;;;;;;;5018673;28;20224;-52
2022/11/22 09:36:34;;;;;;;399.13;142.87;;;;;;;;;;5020989;28;20659;-52
2022/11/22 09:39:01;;;;;;;433.83;149.23;;;;;;;;;;5022604;28;20283;-52
2022/11/22 09:41:45;;;;;;;308.27;114.07;;;;;;;;;;5021135;28;20231;-52
2022/11/22 09:44:35;;;;;;;363.47;136.43;;;;;;;;;;5011965;28;20260;-52
2022/11/22 09:47:17;;;;;;;333.70;124.90;;;;;;;;;;4974672;28;20321;-52
2022/11/22 09:50:02;;;;;;;342.87;124.37;;;;;;;;;;5019909;28;20232;-52
2022/11/22 09:52:31;;;;;;;400.40;151.27;;;;;;;;;;5015701;28;20216;-55
2022/11/22 09:54:59;;;;;;;469.60;186.10;;;;;;;;;;5012056;28;20991;-52
2022/11/22 09:57:30;;;;;;;483.77;178.03;;;;;;;;;;5014073;28;20239;-52
2022/11/22 10:00:10;;;;;;;338.10;133.27;;;;;;;;;;5013413;28;20318;-52
2022/11/22 10:02:45;;;;;;;355.77;134.40;;;;;;;;;;5016025;28;20223;-52
2022/11/22 10:05:23;;;;;;;443.87;179.93;;;;;;;;;;5013544;28;20632;-52
2022/11/22 10:07:59;;;;;;;437.50;163.70;;;;;;;;;;5012146;28;20368;-51
2022/11/22 10:10:29;;;;;;;394.47;149.60;;;;;;;;;;5007142;28;20815;-52
2022/11/22 10:13:27;;;;;;;454.70;176.50;;;;;;;;;;4999653;28;20281;-53
2022/11/22 10:15:53;;;;;;;519.67;199.60;;;;;;;;;;4961733;28;20236;-53
2022/11/22 10:18:37;;;;;;;409.40;154.73;;;;;;;;;;4997757;28;20555;-52
2022/11/22 10:21:03;;;;;;;473.53;179.33;;;;;;;;;;4996650;28;21366;-52
2022/11/22 10:23:31;;;;;;;553.10;218.53;;;;;;;;;;5001322;28;20275;-53
2022/11/22 10:26:05;;;;;;;456.77;180.13;;;;;;;;;;4998363;28;20269;-52
2022/11/22 10:28:54;;;;;;;466.70;182.73;;;;;;;;;;5000261;28;22076;-53
2022/11/22 10:31:25;;;;;;;394.13;156.50;;;;;;;;;;4999461;28;20692;-52
2022/11/22 10:33:54;;;;;;;372.43;140.33;;;;;;;;;;5018399;28;20368;-52
2022/11/22 10:36:32;;;;;;;362.53;141.13;;;;;;;;;;5021740;28;20204;-52
2022/11/22 10:39:18;;;;;;;345.63;136.83;;;;;;;;;;5041453;28;20250;-52
2022/11/22 10:41:57;;;;;;;371.50;143.87;;;;;;;;;;5039607;28;20222;-52
2022/11/22 10:44:47;;;;;;;505.30;193.60;;;;;;;;;;5040377;28;20234;-53
2022/11/22 10:47:13;;;;;;;461.43;173.50;;;;;;;;;;5044116;28;22054;-52
2022/11/22 10:49:45;;;;;;;369.53;145.43;;;;;;;;;;5042252;28;20344;-52
2022/11/22 10:52:33;;;;;;;344.07;125.87;;;;;;;;;;5050661;28;20218;-53
2022/11/22 10:55:21;;;;;;;470.43;186.00;;;;;;;;;;5047905;28;20306;-52
2022/11/22 10:57:59;;;;;;;367.80;139.73;;;;;;;;;;5043906;28;20226;-52
2022/11/22 11:00:26;;;;;;;483.87;174.97;;;;;;;;;;5043200;28;20659;-52
2022/11/22 11:03:11;;;;;;;408.10;158.37;;;;;;;;;;5020569;28;20227;-52
2022/11/22 11:05:49;;;;;;;471.87;174.23;;;;;;;;;;5021815;28;20262;-52
2022/11/22 11:08:16;;;;;;;389.63;155.70;;;;;;;;;;5033396;28;20218;-52
2022/11/22 11:10:46;;;;;;;452.43;158.80;;;;;;;;;;5024352;28;20230;-53
2022/11/22 11:13:33;;;;;;;381.77;153.97;;;;;;;;;;5024443;28;20764;-52
2022/11/22 11:16:01;;;;;;;437.00;164.60;;;;;;;;;;5033315;28;20327;-52
2022/11/22 11:18:27;;;;;;;346.17;138.57;;;;;;;;;;5020778;28;20187;-52
2022/11/22 11:20:53;;;;;;;318.00;120.27;;;;;;;;;;5038542;28;21540;-52
2022/11/22 11:23:19;;;;;;;270.13;109.77;;;;;;;;;;5018285;28;20215;-54
2022/11/22 11:25:47;;;;;;;468.50;168.30;;;;;;;;;;5014529;28;20220;-52
2022/11/22 11:28:17;;;;;;;433.13;148.53;;;;;;;;;;5023106;28;20215;-52
2022/11/22 11:30:46;;;;;;;437.97;164.47;;;;;;;;;;5021807;28;20226;-52
2022/11/22 11:33:20;;;;;;;382.17;143.33;;;;;;;;;;5021610;28;20298;-52
2022/11/22 11:35:46;;;;;;;394.90;154.80;;;;;;;;;;5015701;28;20303;-52
2022/11/22 11:38:29;;;;;;;538.77;215.77;;;;;;;;;;5015032;28;20207;-52
2022/11/22 11:40:55;;;;;;;514.53;198.63;;;;;;;;;;5010202;28;20385;-52
2022/11/22 11:43:22;;;;;;;429.37;156.73;;;;;;;;;;5016229;28;20580;-51
2022/11/22 11:45:48;;;;;;;426.43;166.30;;;;;;;;;;5011275;28;20316;-51
2022/11/22 11:48:42;;;;;;;382.53;150.63;;;;;;;;;;5014172;28;20237;-52
2022/11/22 11:51:13;;;;;;;487.47;197.00;;;;;;;;;;4999505;28;20216;-52
2022/11/22 11:53:40;;;;;;;549.40;215.93;;;;;;;;;;5002717;28;20252;-51
2022/11/22 11:56:28;;;;;;;400.80;159.63;;;;;;;;;;5010921;28;20679;-52
2022/11/22 11:58:55;;;;;;;426.73;169.53;;;;;;;;;;5010269;28;20227;-52
2022/11/22 12:01:24;;;;;;;444.43;171.00;;;;;;;;;;5000903;28;20204;-52
2022/11/22 12:03:52;;;;;;;512.37;190.93;;;;;;;;;;5000127;28;20224;-51
2022/11/22 12:06:18;;;;;;;327.63;130.33;;;;;;;;;;4996521;28;20188;-51
2022/11/22 12:08:44;;;;;;;457.07;174.43;;;;;;;;;;5038321;28;20270;-52
2022/11/22 12:11:16;;;;;;;332.33;137.47;;;;;;;;;;5008644;28;20235;-54
2022/11/22 12:13:44;;;;;;;551.67;213.07;;;;;;;;;;5009300;28;20310;-51
2022/11/22 12:16:18;;;;;;;399.10;148.63;;;;;;;;;;5011014;28;20216;-52
2022/11/22 12:19:09;;;;;;;568.00;223.33;;;;;;;;;;5010399;28;20216;-52
2022/11/22 12:21:38;;;;;;;354.07;141.47;;;;;;;;;;5011559;28;20632;-50
2022/11/22 12:24:11;;;;;;;494.97;185.77;;;;;;;;;;5023775;28;20255;-50
2022/11/22 12:26:37;;;;;;;398.73;148.83;;;;;;;;;;5003897;28;20689;-50
2022/11/22 12:29:04;;;;;;;387.67;154.43;;;;;;;;;;5004156;28;20228;-50
2022/11/22 12:31:38;;;;;;;375.20;148.87;;;;;;;;;;4999001;28;20278;-51
2022/11/22 12:34:13;;;;;;;364.90;141.90;;;;;;;;;;4994942;28;20232;-51
2022/11/22 12:36:58;;;;;;;362.47;147.70;;;;;;;;;;4992480;28;20224;-51
2022/11/22 12:39:26;;;;;;;387.90;152.40;;;;;;;;;;4993844;28;20188;-51
2022/11/22 12:41:56;;;;;;;436.47;164.27;;;;;;;;;;4985426;28;20201;-52
2022/11/22 12:44:25;;;;;;;400.03;153.73;;;;;;;;;;4966120;28;20566;-51
2022/11/22 12:46:54;;;;;;;347.90;143.00;;;;;;;;;;4989791;28;20689;-51
2022/11/22 12:49:28;;;;;;;515.03;199.20;;;;;;;;;;4992624;28;20316;-51
2022/11/22 12:52:07;;;;;;;356.13;140.90;;;;;;;;;;4991095;28;20220;-52
2022/11/22 12:54:37;;;;;;;403.03;153.80;;;;;;;;;;4994935;28;20852;-52
2022/11/22 12:57:10;;;;;;;384.20;154.10;;;;;;;;;;5001469;28;20375;-52
2022/11/22 12:59:59;;;;;;;614.43;218.47;;;;;;;;;;5001139;28;20618;-51
2022/11/22 13:02:39;;;;;;;429.90;158.10;;;;;;;;;;4991283;28;20216;-51
2022/11/22 13:05:11;;;;;;;525.10;187.90;;;;;;;;;;4993013;28;21005;-51
2022/11/22 13:07:45;;;;;;;412.17;152.70;;;;;;;;;;4972221;28;20208;-51
2022/11/22 13:10:19;;;;;;;530.87;194.67;;;;;;;;;;5000462;28;20213;-51
2022/11/22 13:12:46;;;;;;;482.63;179.93;;;;;;;;;;5011614;28;20216;-52
2022/11/22 13:15:13;;;;;;;415.27;159.93;;;;;;;;;;5005427;28;20177;-52
2022/11/22 13:17:39;;;;;;;460.57;187.97;;;;;;;;;;4997747;28;20216;-51
2022/11/22 13:20:08;;;;;;;450.07;167.10;;;;;;;;;;4993630;28;20295;-51
2022/11/22 13:22:40;;;;;;;538.87;220.97;;;;;;;;;;4994942;28;20230;-51
2022/11/22 13:25:06;;;;;;;433.97;171.90;;;;;;;;;;4989843;28;20260;-52
2022/11/22 13:27:37;;;;;;;432.50;176.80;;;;;;;;;;5000412;28;20213;-51
2022/11/22 13:30:03;;;;;;;453.17;183.60;;;;;;;;;;4979351;28;20275;-51
2022/11/22 13:32:31;;;;;;;399.80;170.70;;;;;;;;;;4975117;28;20220;-51
2022/11/22 13:35:17;;;;;;;419.03;169.27;;;;;;;;;;5002922;28;20239;-51
2022/11/22 13:37:49;;;;;;;455.07;183.60;;;;;;;;;;5004899;28;20220;-52
2022/11/22 13:40:15;;;;;;;300.10;126.03;;;;;;;;;;5004952;28;20299;-52
2022/11/22 13:42:41;;;;;;;481.30;188.50;;;;;;;;;;5003382;28;20407;-51
2022/11/22 13:45:08;;;;;;;491.70;199.37;;;;;;;;;;5005060;28;20250;-51
2022/11/22 13:47:41;;;;;;;477.57;184.90;;;;;;;;;;5017289;28;23016;-52
2022/11/22 13:50:26;;;;;;;488.27;180.70;;;;;;;;;;5004943;28;20208;-52
2022/11/22 13:52:53;;;;;;;427.27;168.87;;;;;;;;;;5002221;28;20696;-52
2022/11/22 13:55:27;;;;;;;479.07;180.97;;;;;;;;;;5006004;28;20212;-51
2022/11/22 13:57:53;;;;;;;513.77;192.83;;;;;;;;;;4991371;28;20292;-52
2022/11/22 14:00:20;;;;;;;416.13;171.23;;;;;;;;;;5000385;28;20271;-52
2022/11/22 14:02:46;;;;;;;470.57;183.40;;;;;;;;;;5000701;28;20204;-51
2022/11/22 14:05:25;;;;;;;401.60;160.20;;;;;;;;;;4997576;28;20554;-51
2022/11/22 14:07:55;;;;;;;326.93;138.50;;;;;;;;;;5002870;28;20386;-52
2022/11/22 14:10:38;;;;;;;407.67;158.00;;;;;;;;;;5010849;28;20687;-52
2022/11/22 14:13:13;;;;;;;351.50;145.30;;;;;;;;;;4998960;28;20311;-51
2022/11/22 14:16:18;;;;;;;460.43;181.23;;;;;;;;;;5004084;28;20251;-52
2022/11/22 14:18:48;;;;;;;577.77;227.30;;;;;;;;;;4978583;28;20565;-51